Beechwood, Michigan
Current Conditions -  °F | °C
As of 2:15 PM on Sunday 25 Jan 2015 (Local Time) from KLNL Reporting Station
Overcast Overcast  
Wind Chill: -7°   Ceiling: 12000
Heat Index: -7°   Visibility: 10mi
Dew Point: -15°   Wind: 0mph
Humidity: 56%   Direction: NA
Pressure: 30"   Gusts: NA
Location:  46.2163°N, 88.7676°W
Report Text: KLNL 252015Z AUTO 00000KT 10SM OVC120 M07/M15 A3000 RMK AO2 T10731147
Loading
Personal Weather Stations






























Interactive Weather Map New forecast layout! Learn more

10-Day Weather Forecast

Advertisements
Track Severe Weather on mobile